METAR Data
IDs: Format: Raw Decoded Include TAF

Data at: 0828 UTC 18 Sep 2021

KLSE 180822Z AUTO 00000KT 1 3/4SM BR CLR 09/08 A3023 RMK AO2 T00890078
KLSE 180806Z AUTO 10003KT 3SM BR CLR 09/08 A3023 RMK AO2 T00890078
KLSE 180801Z AUTO 00000KT 3/4SM BR CLR 09/07 A3022 RMK AO2 T00890072
KLSE 180753Z AUTO 00000KT 1SM BR CLR 07/07 A3023 RMK AO2 SLP234 T00720067
KLSE 180751Z AUTO 00000KT 1 1/2SM BR CLR 07/07 A3023 RMK AO2
KLSE 180653Z AUTO 13003KT 4SM BR CLR 09/08 A3022 RMK AO2 SLP232 T00940083
KLSE 180626Z AUTO 00000KT 5SM BR CLR 10/09 A3023 RMK AO2 T01000089
KLSE 180618Z AUTO 00000KT 2SM BR CLR 10/08 A3023 RMK AO2 T01000083
KLSE 180610Z AUTO 00000KT 1/2SM FG CLR 09/08 A3022 RMK AO2 T00940083
KLSE 180600Z AUTO 00000KT 1/4SM FG CLR 09/08 A3022 RMK AO2 T00940083
KLSE 180553Z AUTO 00000KT 1 1/4SM BR CLR 09/08 A3022 RMK AO2 SLP231 T00890083 10200 20089 402500089 53005
KLSE 180453Z AUTO 00000KT 10SM CLR 09/09 A3021 RMK AO2 SLP226 T00940089